Time;durP1;ratioP1;P1;durP2;ratioP2;P2;SDS_P1;SDS_P2;PMS_P1;PMS_P2;Temp;Humidity;BMP_temperature;BMP_pressure;BME280_temperature;BME280_humidity;BME280_pressure;Samples;Min_cycle;Max_cycle;Signal;HPM_P1;HPM_P2
2024/01/19 00:01:10;;;;;;;26.63;9.02;;;;;;;-0.48;85.21;101304.25;5025553;28;20030;-82
2024/01/19 00:03:36;;;;;;;19.00;9.88;;;;;;;-0.50;85.52;101307.69;5017610;28;20060;-82
2024/01/19 00:06:01;;;;;;;14.80;8.88;;;;;;;-0.50;85.32;101303.38;5011702;28;20414;-81
2024/01/19 00:08:26;;;;;;;11.13;8.40;;;;;;;-0.49;85.22;101304.25;5011446;28;20063;-81
2024/01/19 00:10:52;;;;;;;14.30;8.88;;;;;;;-0.53;84.92;101299.00;5018602;28;20036;-81
2024/01/19 00:13:18;;;;;;;16.50;9.00;;;;;;;-0.59;85.10;101306.72;5030040;28;20041;-81
2024/01/19 00:15:43;;;;;;;13.98;7.95;;;;;;;-0.58;85.08;101305.00;5018557;28;20379;-81
2024/01/19 00:18:09;;;;;;;18.38;8.82;;;;;;;-0.58;85.19;101311.06;5033205;28;20061;-81
2024/01/19 00:20:34;;;;;;;13.68;8.52;;;;;;;-0.61;84.80;101302.34;5024245;28;20026;-81
2024/01/19 00:22:59;;;;;;;16.95;8.98;;;;;;;-0.63;84.83;101302.34;5028340;28;20036;-81
2024/01/19 00:25:25;;;;;;;13.25;8.52;;;;;;;-0.68;84.86;101322.19;5010989;28;20026;-81
2024/01/19 00:27:50;;;;;;;12.88;8.07;;;;;;;-0.75;84.82;101322.94;5019787;28;20057;-81
2024/01/19 00:30:15;;;;;;;12.55;7.57;;;;;;;-0.72;84.95;101332.50;5020247;28;20546;-81
2024/01/19 00:32:41;;;;;;;11.98;8.35;;;;;;;-0.74;84.62;101327.28;5028436;28;20049;-81
2024/01/19 00:35:06;;;;;;;13.18;7.93;;;;;;;-0.74;85.01;101335.09;5028540;28;20087;-81
2024/01/19 00:37:32;;;;;;;12.38;7.68;;;;;;;-0.72;84.93;101329.91;5032847;28;20408;-81
2024/01/19 00:39:57;;;;;;;14.30;8.57;;;;;;;-0.80;85.25;101332.38;5019724;28;20485;-81
2024/01/19 00:42:22;;;;;;;12.25;7.90;;;;;;;-0.81;84.62;101333.22;5032668;28;20033;-81
2024/01/19 00:44:47;;;;;;;13.40;7.07;;;;;;;-0.81;84.53;101338.44;5007384;28;20032;-81
2024/01/19 00:47:13;;;;;;;12.60;7.30;;;;;;;-0.85;84.78;101341.81;5030240;28;20116;-81
2024/01/19 00:49:38;;;;;;;12.68;7.32;;;;;;;-0.90;84.60;101341.75;5031424;28;20563;-81
2024/01/19 00:52:04;;;;;;;12.20;7.75;;;;;;;-0.93;84.97;101356.41;5030084;28;20353;-81
2024/01/19 00:54:29;;;;;;;13.95;7.47;;;;;;;-0.94;84.92;101359.84;5013045;28;20065;-81
2024/01/19 00:56:55;;;;;;;12.93;7.18;;;;;;;-0.99;85.00;101341.63;5025260;28;20416;-81
2024/01/19 00:59:20;;;;;;;15.93;8.10;;;;;;;-0.91;85.28;101357.31;5028672;28;20033;-81
2024/01/19 01:01:45;;;;;;;14.77;7.97;;;;;;;-0.87;85.14;101359.13;5027331;28;20487;-80
2024/01/19 01:04:11;;;;;;;13.55;7.25;;;;;;;-0.88;85.33;101358.25;5026281;28;20028;-80
2024/01/19 01:06:36;;;;;;;14.90;7.47;;;;;;;-0.77;85.45;101363.59;5030268;28;20366;-80
2024/01/19 01:09:02;;;;;;;16.23;8.88;;;;;;;-0.85;85.49;101353.06;5031379;28;20067;-80
2024/01/19 01:11:28;;;;;;;19.40;7.68;;;;;;;-0.82;85.36;101358.31;5014112;28;20025;-80
2024/01/19 01:13:53;;;;;;;12.82;7.15;;;;;;;-0.82;85.27;101360.06;5039322;28;20083;-80
2024/01/19 01:16:18;;;;;;;11.85;7.75;;;;;;;-0.81;85.04;101364.38;5014417;28;20026;-80
2024/01/19 01:18:44;;;;;;;13.63;7.72;;;;;;;-0.90;84.83;101362.53;5018999;28;20028;-80
2024/01/19 01:21:09;;;;;;;14.52;7.45;;;;;;;-0.90;85.30;101369.44;5029740;28;20432;-80
2024/01/19 01:23:34;;;;;;;13.38;7.93;;;;;;;-0.88;85.04;101366.03;5022600;28;20034;-80
2024/01/19 01:26:00;;;;;;;13.20;7.75;;;;;;;-0.98;84.64;101366.75;5021591;28;20080;-80
2024/01/19 01:28:25;;;;;;;10.70;6.95;;;;;;;-0.95;84.79;101364.19;5030242;28;20048;-80
2024/01/19 01:30:51;;;;;;;12.48;7.80;;;;;;;-0.93;84.87;101366.78;5008353;28;20701;-80
2024/01/19 01:33:16;;;;;;;10.30;6.63;;;;;;;-0.85;84.36;101376.44;5028055;28;20482;-80
2024/01/19 01:35:41;;;;;;;10.27;7.40;;;;;;;-0.89;84.72;101381.56;5029160;28;20032;-80
2024/01/19 01:38:07;;;;;;;11.68;6.78;;;;;;;-0.89;83.98;101377.25;5030119;28;20392;-81
2024/01/19 01:40:32;;;;;;;11.23;7.28;;;;;;;-0.91;84.03;101372.88;5030909;28;20056;-81
2024/01/19 01:43:02;;;;;;;10.98;7.45;;;;;;;-0.84;84.28;101382.50;5034025;28;20032;-81
2024/01/19 01:45:28;;;;;;;12.05;7.38;;;;;;;-0.76;84.59;101388.69;5032423;28;20029;-80
2024/01/19 01:47:54;;;;;;;15.90;7.72;;;;;;;-0.81;83.48;101385.16;5034835;28;20029;-81
2024/01/19 01:50:19;;;;;;;10.38;7.22;;;;;;;-0.88;83.78;101376.41;5024180;28;20139;-81
2024/01/19 01:52:45;;;;;;;19.00;7.57;;;;;;;-0.81;84.22;101383.41;5023801;28;20037;-80
2024/01/19 01:55:12;;;;;;;10.15;6.95;;;;;;;-0.77;83.97;101387.81;5010414;28;20415;-81
2024/01/19 01:57:39;;;;;;;11.88;7.38;;;;;;;-0.81;84.23;101390.34;5013242;28;20554;-81
2024/01/19 02:00:07;;;;;;;12.73;7.38;;;;;;;-0.97;84.67;101391.84;5011046;28;20029;-81
2024/01/19 02:02:33;;;;;;;11.23;6.97;;;;;;;-1.04;85.62;101396.03;5010598;28;20591;-80
2024/01/19 02:05:00;;;;;;;15.27;7.60;;;;;;;-1.07;86.01;101398.59;5031965;28;20126;-81
2024/01/19 02:07:25;;;;;;;15.05;8.02;;;;;;;-1.02;86.03;101400.41;5031803;28;20048;-81
2024/01/19 02:09:50;;;;;;;13.13;7.63;;;;;;;-0.97;85.19;101401.34;5012246;28;20026;-80
2024/01/19 02:12:16;;;;;;;11.93;6.88;;;;;;;-1.01;85.23;101400.44;5015307;28;20043;-80
2024/01/19 02:14:42;;;;;;;13.00;7.30;;;;;;;-1.10;84.92;101401.13;5029302;28;20072;-80
2024/01/19 02:17:07;;;;;;;10.25;6.70;;;;;;;-1.13;84.91;101410.59;5011863;28;20041;-80
2024/01/19 02:19:35;;;;;;;13.60;7.50;;;;;;;-1.15;84.71;101417.50;5012020;28;20029;-80
2024/01/19 02:22:02;;;;;;;9.80;6.95;;;;;;;-1.29;85.20;101419.84;5029490;28;20053;-80
2024/01/19 02:24:27;;;;;;;12.10;6.60;;;;;;;-1.26;84.81;101419.88;5015216;28;20044;-80
2024/01/19 02:26:55;;;;;;;12.82;6.90;;;;;;;-1.25;84.98;101423.38;5029225;28;20124;-80
2024/01/19 02:29:20;;;;;;;11.50;6.45;;;;;;;-1.27;85.51;101425.03;5026520;28;20153;-80
2024/01/19 02:31:46;;;;;;;11.35;6.78;;;;;;;-1.25;85.32;101420.78;5011436;28;20536;-80
2024/01/19 02:34:11;;;;;;;14.30;6.70;;;;;;;-1.22;85.32;101429.47;5029013;28;20022;-80
2024/01/19 02:36:36;;;;;;;9.40;6.63;;;;;;;-1.21;85.63;101419.94;5012075;28;20064;-80
2024/01/19 02:39:02;;;;;;;7.30;5.70;;;;;;;-1.20;85.26;101438.16;5009358;28;20029;-80
2024/01/19 02:41:27;;;;;;;9.85;6.70;;;;;;;-1.33;86.13;101431.88;5009632;28;20025;-80
2024/01/19 02:43:52;;;;;;;9.30;6.15;;;;;;;-1.33;86.61;101437.06;5026108;28;20104;-80
2024/01/19 02:46:21;;;;;;;6.57;5.45;;;;;;;-1.31;86.46;101437.97;5027597;28;20546;-78
2024/01/19 02:48:46;;;;;;;9.68;5.88;;;;;;;-1.33;86.13;101450.03;5027048;28;20059;-79
2024/01/19 02:51:11;;;;;;;8.80;5.65;;;;;;;-1.34;85.76;101444.81;5028295;28;20045;-79
2024/01/19 02:53:37;;;;;;;13.10;6.40;;;;;;;-1.40;85.97;101455.06;5012448;28;20480;-79
2024/01/19 02:56:04;;;;;;;11.10;5.38;;;;;;;-1.41;86.02;101453.31;5006462;28;20032;-79
2024/01/19 02:58:29;;;;;;;10.98;5.60;;;;;;;-1.39;86.46;101455.13;5038665;28;20030;-79
2024/01/19 03:00:54;;;;;;;9.80;5.57;;;;;;;-1.36;86.67;101456.88;5029815;28;20040;-79
2024/01/19 03:03:20;;;;;;;10.93;5.30;;;;;;;-1.37;86.63;101460.31;5009356;28;20033;-79
2024/01/19 03:05:45;;;;;;;9.43;5.22;;;;;;;-1.34;86.90;101462.97;5026907;28;20124;-79
2024/01/19 03:08:10;;;;;;;7.93;5.13;;;;;;;-1.29;86.57;101466.53;5029672;28;20032;-79
2024/01/19 03:10:36;;;;;;;11.35;5.63;;;;;;;-1.29;87.03;101458.75;5023008;28;20029;-79
2024/01/19 03:13:01;;;;;;;9.18;5.10;;;;;;;-1.32;86.92;101456.97;5035630;28;20033;-79
2024/01/19 03:15:26;;;;;;;7.88;4.93;;;;;;;-1.31;87.41;101463.91;5031963;28;20441;-79
2024/01/19 03:17:52;;;;;;;10.88;4.60;;;;;;;-1.28;87.82;101457.91;5026448;28;20649;-77
2024/01/19 03:20:17;;;;;;;9.50;4.40;;;;;;;-1.24;87.79;101464.88;5026147;28;20119;-77
2024/01/19 03:22:44;;;;;;;11.00;5.05;;;;;;;-1.24;87.49;101458.84;5008801;28;20141;-76
2024/01/19 03:25:09;;;;;;;10.27;4.97;;;;;;;-1.24;87.71;101462.28;5028741;28;20033;-76
2024/01/19 03:27:34;;;;;;;6.47;4.32;;;;;;;-1.21;87.97;101466.66;5028075;28;20491;-76
2024/01/19 03:30:00;;;;;;;5.50;4.55;;;;;;;-1.17;88.04;101468.47;5020715;28;20032;-76
2024/01/19 03:32:25;;;;;;;6.90;5.03;;;;;;;-1.13;88.07;101470.25;5029210;28;20366;-77
2024/01/19 03:34:50;;;;;;;7.22;5.10;;;;;;;-1.12;88.40;101472.91;5026309;28;20121;-77
2024/01/19 03:37:15;;;;;;;8.45;5.40;;;;;;;-1.08;88.37;101469.50;5031366;28;20036;-77
2024/01/19 03:39:41;;;;;;;8.88;6.57;;;;;;;-1.07;88.57;101470.38;5022738;28;20156;-77
2024/01/19 03:42:06;;;;;;;9.98;6.03;;;;;;;-1.03;89.11;101466.97;5026112;28;20025;-77
2024/01/19 03:44:32;;;;;;;10.77;6.13;;;;;;;-0.98;88.93;101474.84;5013065;28;20064;-77
2024/01/19 03:46:59;;;;;;;9.32;6.10;;;;;;;-0.96;88.73;101476.63;5020391;28;20074;-76
2024/01/19 03:49:25;;;;;;;11.77;6.68;;;;;;;-0.93;88.82;101478.38;5026278;28;20021;-76
2024/01/19 03:52:01;;;;;;;7.13;5.38;;;;;;;-0.86;89.06;101482.84;5024184;28;20021;-77
2024/01/19 03:54:27;;;;;;;8.73;6.15;;;;;;;-0.85;88.71;101488.06;5026232;28;20116;-76
2024/01/19 03:56:54;;;;;;;9.27;6.25;;;;;;;-0.80;88.91;101485.53;5026251;28;20521;-79
2024/01/19 03:59:19;;;;;;;15.45;7.82;;;;;;;-0.81;88.85;101489.84;5018725;28;20397;-79
2024/01/19 04:01:44;;;;;;;9.82;6.25;;;;;;;-0.79;88.97;101485.56;5044211;28;20018;-78
2024/01/19 04:04:10;;;;;;;10.38;7.05;;;;;;;-0.80;88.79;101480.34;5025631;28;20503;-79
2024/01/19 04:06:35;;;;;;;9.73;7.07;;;;;;;-0.76;88.63;101482.16;5028626;28;20083;-79
2024/01/19 04:09:01;;;;;;;12.40;7.05;;;;;;;-0.80;88.81;101481.22;5025930;28;20450;-78
2024/01/19 04:11:26;;;;;;;14.57;7.55;;;;;;;-0.78;88.38;101486.44;5026952;28;20520;-79
2024/01/19 04:13:51;;;;;;;10.07;6.63;;;;;;;-0.74;88.49;101490.84;5006947;28;20354;-79
2024/01/19 04:16:18;;;;;;;11.00;7.53;;;;;;;-0.75;88.54;101493.41;5026541;28;20026;-79
2024/01/19 04:18:43;;;;;;;12.18;7.63;;;;;;;-0.72;88.77;101491.72;5008210;28;20495;-79
2024/01/19 04:21:09;;;;;;;14.60;7.85;;;;;;;-0.72;88.87;101499.53;5025231;28;20238;-79
2024/01/19 04:23:34;;;;;;;13.43;7.32;;;;;;;-0.72;88.58;101507.31;5025412;28;20033;-79
2024/01/19 04:25:59;;;;;;;11.23;7.68;;;;;;;-0.73;88.22;101509.88;5029770;28;20397;-78
2024/01/19 04:28:25;;;;;;;11.85;8.32;;;;;;;-0.70;88.04;101510.81;5025235;28;20044;-79
2024/01/19 04:30:50;;;;;;;11.82;7.97;;;;;;;-0.75;88.21;101509.84;5010944;28;20048;-79
2024/01/19 04:33:15;;;;;;;16.10;7.93;;;;;;;-0.75;88.53;101514.16;5026815;28;20033;-79
2024/01/19 04:35:41;;;;;;;11.82;7.38;;;;;;;-0.75;88.18;101517.63;5003621;28;20017;-79
2024/01/19 04:38:06;;;;;;;12.90;7.82;;;;;;;-0.74;88.38;101522.00;5026819;28;20040;-79
2024/01/19 04:40:31;;;;;;;12.55;7.97;;;;;;;-0.79;88.38;101518.47;5005065;28;20579;-79
2024/01/19 04:42:57;;;;;;;16.83;8.27;;;;;;;-0.78;88.49;101525.38;5026982;28;20029;-78
2024/01/19 04:45:22;;;;;;;13.88;8.52;;;;;;;-0.81;88.26;101525.31;5027363;28;21175;-80
2024/01/19 04:47:48;;;;;;;13.27;8.88;;;;;;;-0.82;87.97;101532.25;5008901;28;20044;-79
2024/01/19 04:50:13;;;;;;;13.15;8.10;;;;;;;-0.83;87.62;101545.19;5010163;28;20388;-80
2024/01/19 04:52:38;;;;;;;17.30;9.05;;;;;;;-0.85;87.76;101545.16;5020868;28;20045;-80
2024/01/19 04:55:04;;;;;;;14.18;8.90;;;;;;;-0.88;88.52;101547.72;5029118;28;20400;-78
2024/01/19 04:57:29;;;;;;;11.43;7.78;;;;;;;-0.81;88.05;101556.47;5010165;28;20095;-79
2024/01/19 04:59:55;;;;;;;16.08;8.82;;;;;;;-0.85;87.79;101554.66;5026269;28;20121;-79
2024/01/19 05:02:20;;;;;;;16.55;8.43;;;;;;;-0.86;87.78;101558.13;5028893;28;20068;-79
2024/01/19 05:04:45;;;;;;;12.30;8.77;;;;;;;-0.85;87.67;101552.06;5024922;28;20057;-79
2024/01/19 05:07:11;;;;;;;13.25;8.77;;;;;;;-0.91;87.59;101544.19;5025138;28;20050;-76
2024/01/19 05:09:36;;;;;;;13.98;8.48;;;;;;;-0.94;87.98;101541.53;5025843;28;20088;-76
2024/01/19 05:12:01;;;;;;;14.85;10.63;;;;;;;-0.99;87.88;101548.34;5016024;28;20021;-76
2024/01/19 05:14:27;;;;;;;16.27;10.05;;;;;;;-1.07;88.11;101540.44;5033125;28;20100;-76
2024/01/19 05:16:52;;;;;;;11.85;7.80;;;;;;;-0.99;88.16;101566.53;5009129;28;20528;-76
2024/01/19 05:19:17;;;;;;;15.45;9.10;;;;;;;-1.04;88.51;101569.03;5042740;28;20028;-76
2024/01/19 05:21:43;;;;;;;17.23;10.43;;;;;;;-1.07;88.24;101559.47;5030811;28;20411;-76
2024/01/19 05:24:08;;;;;;;15.27;9.30;;;;;;;-1.03;87.85;101570.78;5027704;28;20076;-76
2024/01/19 05:26:34;;;;;;;12.25;8.15;;;;;;;-1.05;88.08;101583.72;5016109;28;20029;-76
2024/01/19 05:28:59;;;;;;;17.15;9.30;;;;;;;-1.05;87.85;101585.44;5008528;28;20037;-76
2024/01/19 05:31:24;;;;;;;15.70;9.48;;;;;;;-1.04;87.92;101585.47;5008692;28;20037;-76
2024/01/19 05:33:50;;;;;;;16.58;10.23;;;;;;;-1.02;87.77;101587.25;5008955;28;20030;-76
2024/01/19 05:36:15;;;;;;;16.10;9.75;;;;;;;-1.04;87.63;101590.66;5010343;28;20461;-76
2024/01/19 05:38:40;;;;;;;19.48;9.77;;;;;;;-1.10;87.68;101608.72;5010217;28;20025;-76
2024/01/19 05:41:05;;;;;;;13.02;9.00;;;;;;;-1.10;87.49;101605.25;5009508;28;20042;-76
2024/01/19 05:43:32;;;;;;;14.00;9.88;;;;;;;-1.08;87.57;101622.59;5011782;28;20026;-76
2024/01/19 05:45:57;;;;;;;16.55;9.02;;;;;;;-1.09;87.76;101625.16;5009892;28;20378;-76
2024/01/19 05:48:25;;;;;;;11.95;9.30;;;;;;;-1.10;87.50;101631.19;5008894;28;20048;-75
2024/01/19 05:50:50;;;;;;;14.13;8.73;;;;;;;-1.12;87.69;101641.56;5007000;28;20446;-75
2024/01/19 05:53:15;;;;;;;13.82;8.73;;;;;;;-1.08;87.72;101643.34;5010272;28;20124;-75
2024/01/19 05:55:42;;;;;;;15.70;10.93;;;;;;;-1.10;87.69;101647.63;5006665;28;20029;-75
2024/01/19 05:58:07;;;;;;;16.00;10.05;;;;;;;-1.07;87.75;101644.25;5009858;28;20108;-75
2024/01/19 06:00:33;;;;;;;17.15;10.27;;;;;;;-1.02;87.98;101649.53;5010553;28;20109;-75
2024/01/19 06:02:58;;;;;;;12.95;9.15;;;;;;;-0.95;88.00;101657.44;5008775;28;20022;-76
2024/01/19 06:05:24;;;;;;;13.18;10.15;;;;;;;-0.86;87.78;101661.94;5037164;28;20041;-75
2024/01/19 06:07:49;;;;;;;18.20;10.60;;;;;;;-0.81;87.77;101668.09;5005861;28;20026;-75
2024/01/19 06:10:15;;;;;;;14.70;9.70;;;;;;;-0.74;87.67;101676.91;5039445;28;20073;-75
2024/01/19 06:12:40;;;;;;;12.57;9.88;;;;;;;-0.69;87.45;101678.72;5003596;28;20121;-75
2024/01/19 06:15:06;;;;;;;14.13;10.77;;;;;;;-0.62;87.40;101687.50;5007194;28;20133;-75
2024/01/19 06:17:31;;;;;;;17.48;10.45;;;;;;;-0.57;87.47;101704.03;5008564;28;20377;-75
2024/01/19 06:19:57;;;;;;;14.55;9.85;;;;;;;-0.53;87.40;101698.06;5006272;28;20022;-75
2024/01/19 06:22:22;;;;;;;13.73;10.23;;;;;;;-0.47;87.24;101697.31;5008261;28;20026;-76
2024/01/19 06:24:51;;;;;;;15.57;10.13;;;;;;;-0.42;87.42;101708.66;5006803;28;20083;-75
2024/01/19 06:27:20;;;;;;;15.10;10.23;;;;;;;-0.39;87.48;101722.56;5011708;28;20489;-78
2024/01/19 06:29:45;;;;;;;14.23;9.68;;;;;;;-0.37;87.04;101714.84;5027562;28;20042;-78
2024/01/19 06:32:11;;;;;;;17.25;10.98;;;;;;;-0.36;87.05;101713.97;5025462;28;20028;-78
2024/01/19 06:34:39;;;;;;;11.80;8.95;;;;;;;-0.38;87.07;101715.66;5029759;28;20088;-78
2024/01/19 06:37:05;;;;;;;15.05;10.07;;;;;;;-0.38;86.90;101707.88;5027519;28;20025;-78
2024/01/19 06:39:30;;;;;;;15.93;10.23;;;;;;;-0.39;86.93;101717.38;5023108;28;20484;-79
2024/01/19 06:41:55;;;;;;;11.75;8.95;;;;;;;-0.41;87.09;101719.09;5011449;28;20087;-78
2024/01/19 06:44:21;;;;;;;14.65;9.73;;;;;;;-0.42;87.08;101719.03;5025049;28;20107;-78
2024/01/19 06:46:46;;;;;;;16.92;10.85;;;;;;;-0.46;86.95;101732.84;5028104;28;20448;-78
2024/01/19 06:49:12;;;;;;;13.00;9.45;;;;;;;-0.59;87.00;101714.41;5024182;28;20444;-79
2024/01/19 06:51:38;;;;;;;15.77;9.88;;;;;;;-0.64;87.42;101725.56;5027027;28;20099;-78
2024/01/19 06:54:03;;;;;;;14.95;9.13;;;;;;;-0.67;87.17;101723.75;5027667;28;20053;-78
2024/01/19 06:56:29;;;;;;;13.98;9.45;;;;;;;-0.73;86.98;101723.66;5030160;28;20087;-78
2024/01/19 06:58:54;;;;;;;16.60;9.15;;;;;;;-0.78;87.16;101726.16;5028242;28;20052;-79
2024/01/19 07:01:20;;;;;;;13.35;9.57;;;;;;;-0.85;87.36;101732.06;5008843;28;20456;-79
2024/01/19 07:03:45;;;;;;;15.27;9.63;;;;;;;-0.97;87.12;101733.53;5017536;28;20041;-79
2024/01/19 07:06:11;;;;;;;13.75;9.32;;;;;;;-0.99;87.36;101738.69;5030095;28;20116;-78
2024/01/19 07:08:36;;;;;;;17.27;9.55;;;;;;;-1.04;87.32;101748.09;5025138;28;20444;-79
2024/01/19 07:11:02;;;;;;;17.23;10.40;;;;;;;-1.07;87.19;101756.69;5029239;28;20025;-80
2024/01/19 07:13:30;;;;;;;15.10;10.38;;;;;;;-1.15;87.16;101753.03;5029838;28;20029;-79
2024/01/19 07:15:55;;;;;;;13.02;9.43;;;;;;;-1.18;87.43;101758.16;5029294;28;20048;-79
2024/01/19 07:18:21;;;;;;;16.98;10.57;;;;;;;-1.23;86.96;101764.97;5029137;28;20548;-78
2024/01/19 07:20:46;;;;;;;14.73;9.45;;;;;;;-1.25;86.98;101773.56;5031831;28;20117;-79
2024/01/19 07:23:11;;;;;;;12.98;9.57;;;;;;;-1.27;87.21;101780.41;5033715;28;20084;-79
2024/01/19 07:25:37;;;;;;;11.80;8.90;;;;;;;-1.27;86.93;101781.28;5028350;28;20503;-79
2024/01/19 07:28:02;;;;;;;16.23;9.60;;;;;;;-1.29;87.05;101790.78;5007323;28;20041;-79
2024/01/19 07:30:28;;;;;;;15.70;10.13;;;;;;;-1.33;87.27;101778.56;5030120;28;20405;-78
2024/01/19 07:32:53;;;;;;;16.33;9.63;;;;;;;-1.37;87.77;101780.19;5006876;28;20423;-79
2024/01/19 07:35:19;;;;;;;14.60;9.30;;;;;;;-1.40;87.07;101785.34;5026988;28;20017;-79
2024/01/19 07:37:45;;;;;;;17.52;10.35;;;;;;;-1.41;87.08;101800.84;5006582;28;20021;-79
2024/01/19 07:40:11;;;;;;;15.98;10.45;;;;;;;-1.46;87.42;101790.34;5022784;28;20377;-79
2024/01/19 07:42:36;;;;;;;13.45;10.15;;;;;;;-1.44;87.15;101798.19;5029336;28;20117;-79
2024/01/19 07:45:01;;;;;;;16.42;9.93;;;;;;;-1.43;87.22;101802.53;5024699;28;20037;-79
2024/01/19 07:47:27;;;;;;;16.52;10.60;;;;;;;-1.45;87.20;101805.06;5009639;28;20476;-78
2024/01/19 07:49:52;;;;;;;15.45;9.65;;;;;;;-1.43;87.01;101807.72;5009078;28;20044;-78
2024/01/19 07:52:18;;;;;;;13.38;9.45;;;;;;;-1.59;87.33;101809.91;5028625;28;20025;-80
2024/01/19 07:54:43;;;;;;;15.27;10.43;;;;;;;-1.64;87.87;101816.69;5040221;28;20026;-79
2024/01/19 07:57:09;;;;;;;13.88;10.20;;;;;;;-1.63;88.03;101817.59;5022837;28;20061;-76
2024/01/19 07:59:35;;;;;;;15.57;10.02;;;;;;;-1.64;88.34;101824.47;5003446;28;20429;-76
2024/01/19 08:02:01;;;;;;;15.48;10.13;;;;;;;-1.64;88.68;101818.41;5024557;28;20017;-76
2024/01/19 08:04:27;;;;;;;16.00;10.43;;;;;;;-1.56;88.24;101828.16;5026755;28;20036;-76
2024/01/19 08:06:52;;;;;;;15.80;10.25;;;;;;;-1.55;88.00;101826.44;5023087;28;20353;-77
2024/01/19 08:09:17;;;;;;;17.73;10.77;;;;;;;-1.61;88.20;101834.94;5002866;28;20176;-76
2024/01/19 08:11:42;;;;;;;15.43;10.07;;;;;;;-1.65;88.72;101834.81;5026323;28;20045;-76
2024/01/19 08:14:08;;;;;;;18.25;10.60;;;;;;;-1.51;88.42;101846.41;5027499;28;20063;-77
2024/01/19 08:16:33;;;;;;;14.32;9.93;;;;;;;-1.32;87.95;101852.94;5026922;28;20103;-76
2024/01/19 08:18:58;;;;;;;16.33;10.70;;;;;;;-1.34;88.17;101846.84;5025770;28;20052;-76
2024/01/19 08:21:24;;;;;;;14.68;9.77;;;;;;;-1.26;88.16;101847.88;5025560;28;20036;-76
2024/01/19 08:23:49;;;;;;;18.50;10.40;;;;;;;-1.22;88.38;101857.50;5011485;28;20053;-76
2024/01/19 08:26:15;;;;;;;11.90;8.60;;;;;;;-1.16;89.16;101856.81;5027014;28;20420;-76
2024/01/19 08:28:45;;;;;;;21.10;12.27;;;;;;;-1.11;89.10;101858.66;5026196;28;20052;-76
2024/01/19 08:31:11;;;;;;;18.48;10.57;;;;;;;-0.95;88.89;101857.28;5022743;28;20380;-76
2024/01/19 08:33:36;;;;;;;15.75;10.80;;;;;;;-0.92;89.04;101852.19;5040875;28;20029;-75
2024/01/19 08:36:02;;;;;;;19.10;11.00;;;;;;;-0.88;88.95;101856.59;5009269;28;20132;-76
2024/01/19 08:38:27;;;;;;;18.20;10.88;;;;;;;-0.63;89.01;101867.53;5027976;28;20116;-76
2024/01/19 08:40:52;;;;;;;22.58;12.15;;;;;;;-0.26;88.46;101871.78;5029666;28;20041;-75
2024/01/19 08:43:18;;;;;;;21.17;12.35;;;;;;;0.13;87.74;101876.91;5029098;28;20480;-75
2024/01/19 08:45:43;;;;;;;18.92;11.20;;;;;;;0.36;86.22;101871.25;5032323;28;20540;-76
2024/01/19 08:48:08;;;;;;;18.13;11.50;;;;;;;0.94;85.92;101880.06;5016923;28;20052;-80
2024/01/19 08:50:34;;;;;;;29.80;12.05;;;;;;;1.48;83.20;101880.00;5012693;28;20401;-79
2024/01/19 08:52:59;;;;;;;14.45;10.02;;;;;;;1.68;81.41;101882.00;5026519;28;20055;-79
2024/01/19 08:55:25;;;;;;;17.50;9.32;;;;;;;1.90;79.79;101890.97;5013690;28;20485;-79
2024/01/19 08:57:50;;;;;;;14.75;8.68;;;;;;;2.60;78.56;101880.41;5015972;28;20025;-79
2024/01/19 09:00:16;;;;;;;11.27;8.73;;;;;;;3.03;77.18;101887.78;5032029;28;20095;-79
2024/01/19 09:02:41;;;;;;;9.80;7.90;;;;;;;2.92;75.24;101893.75;5041193;28;20021;-79
2024/01/19 09:05:11;;;;;;;10.48;6.85;;;;;;;2.68;74.55;101891.81;5019353;28;20033;-78
2024/01/19 09:07:36;;;;;;;10.23;7.35;;;;;;;2.80;76.17;101894.53;5019982;28;20041;-78
2024/01/19 09:10:02;;;;;;;10.23;6.95;;;;;;;2.59;75.65;101904.78;5031801;28;20029;-79
2024/01/19 09:12:28;;;;;;;10.90;7.72;;;;;;;2.34;76.11;101921.94;5013890;28;20021;-79
2024/01/19 09:14:54;;;;;;;8.32;7.50;;;;;;;2.11;76.51;101914.72;5021273;28;20059;-80
2024/01/19 09:17:19;;;;;;;9.85;7.60;;;;;;;2.02;78.09;101915.47;5008740;28;20139;-79
2024/01/19 09:19:44;;;;;;;13.02;7.28;;;;;;;2.17;77.72;101911.28;5030392;28;20028;-79
2024/01/19 09:22:10;;;;;;;9.27;7.72;;;;;;;2.27;77.76;101928.78;5030483;28;20021;-80
2024/01/19 09:24:35;;;;;;;8.25;6.45;;;;;;;2.12;77.17;101924.28;5030188;28;20472;-80
2024/01/19 09:27:00;;;;;;;12.38;6.93;;;;;;;2.12;77.18;101939.94;5038339;28;20017;-79
2024/01/19 09:29:26;;;;;;;9.30;6.60;;;;;;;2.54;77.32;101944.75;5034226;28;20053;-79
2024/01/19 09:31:51;;;;;;;7.63;6.80;;;;;;;3.19;75.65;101938.41;5040388;28;20411;-79
2024/01/19 09:34:16;;;;;;;10.27;5.78;;;;;;;3.98;72.73;101940.63;5037722;28;20037;-79
2024/01/19 09:36:42;;;;;;;9.20;6.43;;;;;;;5.28;71.52;101947.88;5013377;28;20555;-79
2024/01/19 09:39:07;;;;;;;9.13;6.20;;;;;;;6.01;66.98;101957.38;5032677;28;20083;-79
2024/01/19 09:41:40;;;;;;;8.88;6.43;;;;;;;6.41;63.35;101955.47;5030926;28;20079;-79
2024/01/19 09:44:12;;;;;;;;;;;;;;;6.77;64.18;101956.16;5032002;28;20120;-79
2024/01/19 09:46:55;;;;;;;10.10;4.97;;;;;;;6.86;61.49;101956.09;5027975;28;19916;-79
2024/01/19 09:49:43;;;;;;;7.43;4.97;;;;;;;7.51;62.15;101957.31;5030452;28;20037;-78
2024/01/19 09:52:33;;;;;;;8.20;5.50;;;;;;;8.46;59.37;101963.25;5028724;28;20495;-78
2024/01/19 09:54:59;;;;;;;8.50;4.97;;;;;;;8.58;57.40;101963.97;5030016;28;20026;-79
2024/01/19 09:57:25;;;;;;;11.07;5.50;;;;;;;8.66;56.11;101970.00;5014617;28;20037;-78
2024/01/19 09:59:52;;;;;;;7.68;5.32;;;;;;;8.89;55.93;101976.69;5030231;28;20028;-77
2024/01/19 10:02:18;;;;;;;6.70;5.72;;;;;;;9.95;55.13;101978.41;5024108;28;20030;-78
2024/01/19 10:04:43;;;;;;;6.88;4.82;;;;;;;10.92;52.83;101980.78;5031729;28;20029;-78
2024/01/19 10:07:09;;;;;;;6.38;5.22;;;;;;;11.63;50.68;101982.53;5028885;28;20496;-79
2024/01/19 10:09:35;;;;;;;8.95;5.18;;;;;;;12.30;49.37;101989.56;5029477;28;20025;-79
2024/01/19 10:12:00;;;;;;;5.85;4.35;;;;;;;12.42;48.62;101987.44;5036167;28;20028;-79
2024/01/19 10:14:26;;;;;;;6.28;4.60;;;;;;;12.04;46.55;101991.19;5032268;28;20030;-79
2024/01/19 10:16:52;;;;;;;8.15;5.07;;;;;;;11.10;46.07;102000.66;5033334;28;20389;-80
2024/01/19 10:19:21;;;;;;;7.57;4.65;;;;;;;11.06;48.54;101977.81;5032765;28;20056;-79
2024/01/19 10:21:46;;;;;;;5.43;4.78;;;;;;;11.77;47.63;101981.31;5029611;28;20026;-79
2024/01/19 10:24:14;;;;;;;6.53;4.53;;;;;;;12.12;46.59;101983.00;5031067;28;20053;-79
2024/01/19 10:26:40;;;;;;;5.95;4.65;;;;;;;11.39;47.97;101981.41;5028697;28;20025;-78
2024/01/19 10:29:10;;;;;;;6.60;4.70;;;;;;;12.53;46.85;101989.75;5033400;28;20497;-79
2024/01/19 10:31:37;;;;;;;7.47;5.07;;;;;;;12.81;45.15;101988.91;5025266;28;20054;-79
2024/01/19 10:34:02;;;;;;;8.18;5.25;;;;;;;12.91;45.23;101990.38;5017013;28;20021;-79
2024/01/19 10:36:36;;;;;;;6.57;4.53;;;;;;;13.28;46.62;101998.06;5034010;28;20036;-79
2024/01/19 10:39:23;;;;;;;8.10;5.00;;;;;;;13.26;46.69;101997.25;5013461;28;20489;-79
2024/01/19 10:41:50;;;;;;;7.18;4.32;;;;;;;13.50;42.31;101988.44;5029067;28;20044;-78
2024/01/19 10:44:19;;;;;;;5.90;4.38;;;;;;;13.17;42.98;101994.84;5033449;28;20033;-78
2024/01/19 10:46:44;;;;;;;5.93;4.25;;;;;;;13.17;43.96;101995.72;5013779;28;20021;-78
2024/01/19 10:49:12;;;;;;;6.60;4.43;;;;;;;13.19;43.19;101990.34;5035242;28;20396;-77
2024/01/19 10:51:40;;;;;;;5.90;4.07;;;;;;;13.05;42.55;101997.91;5029059;28;20400;-78
2024/01/19 10:54:05;;;;;;;6.68;4.50;;;;;;;12.84;43.66;101995.00;5013151;28;20119;-77
2024/01/19 10:56:31;;;;;;;8.48;4.95;;;;;;;13.62;42.84;101992.50;5025167;28;20536;-78
2024/01/19 10:59:09;;;;;;;6.78;5.15;;;;;;;14.14;44.21;101997.75;5013329;28;20032;-78
2024/01/19 11:01:34;;;;;;;7.43;4.30;;;;;;;14.93;40.64;101996.53;5013883;28;20535;-78
2024/01/19 11:04:01;;;;;;;6.97;4.50;;;;;;;15.50;39.87;101992.41;5030829;28;20049;-78
2024/01/19 11:06:27;;;;;;;11.40;5.38;;;;;;;15.89;38.60;101987.16;5026682;28;20041;-79
2024/01/19 11:08:52;;;;;;;7.50;4.60;;;;;;;15.41;38.54;101991.00;5033763;28;20029;-79
2024/01/19 11:11:21;;;;;;;8.13;4.25;;;;;;;14.98;40.69;101999.88;5023619;28;20029;-79
2024/01/19 11:13:50;;;;;;;7.38;4.72;;;;;;;14.98;40.36;101994.56;5024862;28;20455;-80